createdAt,value
2022-08-18T00:01:32.312Z,21.06
2022-08-18T00:06:37.110Z,20.96
2022-08-18T00:11:44.399Z,20.89
2022-08-18T00:16:49.030Z,20.84
2022-08-18T00:21:54.019Z,20.66
2022-08-18T00:26:58.464Z,20.35
2022-08-18T00:32:13.875Z,20.23
2022-08-18T00:37:17.696Z,20.15
2022-08-18T00:42:30.582Z,20.19
2022-08-18T00:47:42.283Z,20.24
2022-08-18T00:52:54.394Z,20.25
2022-08-18T00:58:08.327Z,20.09
2022-08-18T01:03:17.032Z,20.03
2022-08-18T01:08:29.689Z,20.11
2022-08-18T01:13:34.554Z,20.15
2022-08-18T01:18:57.890Z,20.17
2022-08-18T01:24:06.064Z,20.19
2022-08-18T01:29:18.716Z,20.13
2022-08-18T01:34:26.229Z,20.06
2022-08-18T01:41:24.885Z,19.90
2022-08-18T01:44:54.542Z,19.77
2022-08-18T01:50:00.442Z,19.70
2022-08-18T01:55:05.529Z,19.60
2022-08-18T02:00:15.310Z,19.46
2022-08-18T02:05:28.487Z,19.49
2022-08-18T02:10:35.442Z,19.55
2022-08-18T02:15:41.992Z,19.54
2022-08-18T02:20:49.246Z,19.33
2022-08-18T02:25:53.384Z,19.22
2022-08-18T02:30:57.932Z,19.18
2022-08-18T02:36:03.661Z,19.23
2022-08-18T02:41:11.293Z,19.14
2022-08-18T02:46:17.217Z,19.14
2022-08-18T02:51:22.348Z,19.12
2022-08-18T02:56:32.707Z,19.07
2022-08-18T03:01:49.409Z,18.99
2022-08-18T03:06:53.565Z,19.04
2022-08-18T03:11:59.149Z,19.12
2022-08-18T03:17:06.777Z,19.15
2022-08-18T03:22:28.738Z,19.07
2022-08-18T03:27:36.415Z,18.94
2022-08-18T03:32:41.084Z,18.79
2022-08-18T03:37:50.484Z,18.75
2022-08-18T03:42:55.649Z,18.76
2022-08-18T03:48:01.247Z,18.80
2022-08-18T03:53:06.198Z,18.82
2022-08-18T03:58:15.941Z,18.72
2022-08-18T04:03:19.426Z,18.70
2022-08-18T04:08:24.183Z,18.73
2022-08-18T04:13:28.929Z,18.90
2022-08-18T04:18:34.033Z,18.89
2022-08-18T04:23:39.486Z,18.93
2022-08-18T04:28:49.643Z,19.12
2022-08-18T04:33:55.238Z,19.35
2022-08-18T04:39:00.739Z,19.58
2022-08-18T04:44:09.276Z,19.77
2022-08-18T04:49:14.390Z,19.89
2022-08-18T04:54:18.803Z,20.11
2022-08-18T04:59:22.033Z,20.33
2022-08-18T05:04:29.440Z,20.60
2022-08-18T05:09:41.407Z,20.90
2022-08-18T05:14:46.850Z,21.23
2022-08-18T05:19:50.871Z,21.56
2022-08-18T05:24:55.090Z,21.91
2022-08-18T05:29:59.653Z,22.26
2022-08-18T05:35:07.994Z,22.66
2022-08-18T05:40:15.476Z,23.58
2022-08-18T05:45:21.472Z,24.19
2022-08-18T05:50:26.325Z,24.21
2022-08-18T05:56:17.253Z,24.24
2022-08-18T06:01:30.738Z,24.50
2022-08-18T06:06:36.848Z,24.72
2022-08-18T06:11:40.917Z,24.86
2022-08-18T06:17:01.623Z,24.84
2022-08-18T06:22:29.808Z,24.77
2022-08-18T06:27:44.502Z,24.80
2022-08-18T06:33:04.420Z,24.94
2022-08-18T06:38:36.317Z,25.21
2022-08-18T06:44:04.784Z,25.58
2022-08-18T06:49:17.686Z,26.02
2022-08-18T06:54:21.091Z,26.24
2022-08-18T06:59:31.445Z,26.67
2022-08-18T07:04:44.712Z,27.02
2022-08-18T07:09:49.168Z,27.76
2022-08-18T07:14:57.127Z,28.97
2022-08-18T07:20:18.588Z,29.67
2022-08-18T07:25:34.801Z,29.77
2022-08-18T07:30:41.950Z,29.75
2022-08-18T07:36:06.298Z,29.76
2022-08-18T07:41:21.904Z,30.09
2022-08-18T07:46:59.229Z,30.61
2022-08-18T07:52:43.773Z,31.19
2022-08-18T07:57:59.791Z,31.56
2022-08-18T08:03:43.870Z,31.38
2022-08-18T08:09:03.691Z,31.17
2022-08-18T08:14:34.023Z,30.92
2022-08-18T08:20:02.500Z,31.05
2022-08-18T08:25:45.782Z,31.20
2022-08-18T08:31:36.654Z,31.31
2022-08-18T08:36:45.724Z,31.39
2022-08-18T08:42:29.062Z,31.46
2022-08-18T08:47:49.130Z,31.74
2022-08-18T08:53:09.238Z,31.80
2022-08-18T08:58:34.643Z,31.70
2022-08-18T09:03:54.489Z,31.84
2022-08-18T09:09:30.518Z,31.79
2022-08-18T09:15:02.632Z,31.69
2022-08-18T09:20:51.656Z,31.78
2022-08-18T09:26:00.997Z,31.86
2022-08-18T09:31:10.990Z,31.97
2022-08-18T09:36:20.183Z,32.07
2022-08-18T09:41:34.729Z,32.23
2022-08-18T09:46:48.028Z,32.33
2022-08-18T09:51:57.580Z,32.40
2022-08-18T09:57:05.280Z,32.28
2022-08-18T10:02:33.251Z,32.32
2022-08-18T10:07:44.185Z,32.57
2022-08-18T10:13:25.473Z,32.87
2022-08-18T10:18:45.887Z,32.75
2022-08-18T10:24:08.470Z,32.25
2022-08-18T10:29:30.043Z,32.04
2022-08-18T10:34:51.471Z,32.31
2022-08-18T10:40:16.616Z,32.57
2022-08-18T10:46:24.584Z,32.73
2022-08-18T10:51:58.079Z,32.89
2022-08-18T10:57:22.239Z,32.35
2022-08-18T11:02:31.249Z,32.50
2022-08-18T11:07:36.202Z,32.52
2022-08-18T11:12:56.530Z,32.74
2022-08-18T11:18:30.176Z,33.03
2022-08-18T11:23:34.564Z,33.15
2022-08-18T11:28:41.176Z,32.98
2022-08-18T11:33:51.376Z,32.96
2022-08-18T11:38:57.377Z,33.26
2022-08-18T11:44:03.187Z,33.32
2022-08-18T11:49:26.159Z,33.06
2022-08-18T11:54:50.904Z,32.92
2022-08-18T12:00:00.633Z,32.84
2022-08-18T12:05:22.453Z,32.29
2022-08-18T12:10:29.381Z,31.88
2022-08-18T12:15:43.857Z,31.77
2022-08-18T12:26:27.110Z,31.89
2022-08-18T12:31:47.419Z,32.08
2022-08-18T12:37:07.161Z,32.31
2022-08-18T12:42:18.237Z,32.43
2022-08-18T12:47:31.036Z,32.41
2022-08-18T12:52:35.971Z,32.45
2022-08-18T13:03:03.631Z,32.54
2022-08-18T13:08:30.327Z,32.61
2022-08-18T13:13:35.731Z,32.60
2022-08-18T13:18:45.370Z,32.36
2022-08-18T13:23:50.808Z,32.31
2022-08-18T13:28:58.896Z,32.06
2022-08-18T13:34:04.045Z,31.58
2022-08-18T13:39:08.842Z,31.31
2022-08-18T13:44:18.608Z,31.02
2022-08-18T13:49:30.085Z,30.71
2022-08-18T13:54:35.549Z,30.93
2022-08-18T13:59:46.466Z,31.18
2022-08-18T14:04:51.927Z,31.32
2022-08-18T14:09:56.190Z,31.33
2022-08-18T14:15:00.107Z,31.38
2022-08-18T14:20:27.425Z,31.45
2022-08-18T14:25:50.209Z,31.45
2022-08-18T14:30:55.877Z,31.25
2022-08-18T14:36:06.712Z,31.20
2022-08-18T14:41:15.338Z,31.36
2022-08-18T14:51:33.662Z,31.40
2022-08-18T14:56:39.536Z,31.27
2022-08-18T15:01:44.081Z,31.11
2022-08-18T15:06:56.328Z,31.05
2022-08-18T15:12:01.221Z,31.11
2022-08-18T15:17:11.845Z,31.03
2022-08-18T15:22:35.642Z,30.87
2022-08-18T15:27:42.686Z,30.88
2022-08-18T15:32:50.068Z,30.91
2022-08-18T15:37:55.154Z,30.87
2022-08-18T15:43:01.763Z,30.82
2022-08-18T15:48:05.584Z,30.69
2022-08-18T15:53:11.235Z,30.48
2022-08-18T15:58:15.609Z,30.38
2022-08-18T16:03:25.886Z,30.37
2022-08-18T16:08:32.180Z,30.34
2022-08-18T16:13:35.578Z,30.14
2022-08-18T16:18:40.205Z,29.97
2022-08-18T16:23:45.817Z,29.83
2022-08-18T16:28:52.921Z,29.61
2022-08-18T16:33:58.277Z,29.47
2022-08-18T16:39:01.657Z,29.37
2022-08-18T16:44:05.148Z,29.27
2022-08-18T16:49:08.498Z,29.09
2022-08-18T16:54:14.724Z,28.90
2022-08-18T16:59:38.740Z,28.70
2022-08-18T17:04:43.652Z,28.50
2022-08-18T17:09:47.128Z,28.28
2022-08-18T17:14:52.137Z,28.08
2022-08-18T17:19:56.375Z,27.89
2022-08-18T17:25:03.925Z,27.67
2022-08-18T17:30:17.548Z,27.44
2022-08-18T17:35:32.007Z,27.21
2022-08-18T17:40:48.402Z,26.96
2022-08-18T17:46:02.642Z,26.71
2022-08-18T17:51:36.511Z,26.48
2022-08-18T17:56:53.215Z,26.26
2022-08-18T18:02:29.988Z,26.06
2022-08-18T18:07:54.221Z,25.86
2022-08-18T18:13:16.550Z,25.65
2022-08-18T18:18:42.580Z,25.45
2022-08-18T18:23:55.626Z,25.22
2022-08-18T18:29:33.432Z,25.06
2022-08-18T18:34:46.675Z,24.88
2022-08-18T18:40:08.789Z,24.70
2022-08-18T18:45:31.185Z,24.53
2022-08-18T18:50:55.969Z,24.27
2022-08-18T18:56:19.349Z,23.98
2022-08-18T19:01:40.829Z,23.69
2022-08-18T19:06:54.711Z,23.64
2022-08-18T19:12:19.053Z,23.67
2022-08-18T19:17:43.462Z,23.64
2022-08-18T19:22:59.929Z,23.52
2022-08-18T19:28:31.477Z,23.40
2022-08-18T19:34:10.336Z,23.12
2022-08-18T19:39:21.873Z,22.97
2022-08-18T19:45:00.340Z,22.96
2022-08-18T19:50:22.086Z,22.92
2022-08-18T19:55:35.716Z,22.88
2022-08-18T20:00:54.621Z,22.81
2022-08-18T20:06:33.271Z,22.70
2022-08-18T20:11:41.934Z,22.63
2022-08-18T20:17:32.945Z,22.58
2022-08-18T20:22:40.542Z,22.47
2022-08-18T20:27:50.960Z,22.35
2022-08-18T20:33:29.482Z,22.25
2022-08-18T20:38:35.666Z,22.19
2022-08-18T20:43:40.260Z,22.13
2022-08-18T20:49:08.669Z,22.09
2022-08-18T20:54:57.478Z,22.01
2022-08-18T21:00:16.174Z,21.93
2022-08-18T21:05:39.377Z,21.88
2022-08-18T21:11:03.807Z,21.75
2022-08-18T21:16:38.148Z,21.69
2022-08-18T21:21:52.230Z,21.70
2022-08-18T21:27:01.667Z,21.69
2022-08-18T21:32:17.936Z,21.57
2022-08-18T21:37:22.839Z,21.51
2022-08-18T21:42:43.238Z,21.42
2022-08-18T21:47:54.328Z,21.27
2022-08-18T21:53:03.222Z,21.24
2022-08-18T21:58:19.677Z,21.23
2022-08-18T22:03:54.028Z,21.22
2022-08-18T22:09:26.662Z,21.18
2022-08-18T22:14:55.169Z,21.13
2022-08-18T22:20:39.651Z,21.09
2022-08-18T22:25:44.294Z,21.06
2022-08-18T22:30:48.330Z,20.99
2022-08-18T22:35:57.349Z,20.85
2022-08-18T22:41:02.255Z,20.72
2022-08-18T22:46:09.782Z,20.63
2022-08-18T22:51:14.058Z,20.56
2022-08-18T22:56:26.471Z,20.55
2022-08-18T23:01:40.377Z,20.56
2022-08-18T23:06:52.379Z,20.57
2022-08-18T23:12:00.502Z,20.55
2022-08-18T23:17:06.442Z,20.55
2022-08-18T23:22:11.490Z,20.58
2022-08-18T23:27:16.240Z,20.63
2022-08-18T23:32:30.212Z,20.71
2022-08-18T23:37:36.285Z,20.76
2022-08-18T23:42:40.863Z,20.78
2022-08-18T23:47:46.322Z,20.78
2022-08-18T23:53:00.824Z,20.80
2022-08-18T23:58:06.431Z,20.83
